Time,TemperatureF,DewpointF,PressureIn,WindDirection,WindDirectionDegrees,WindSpeedMPH,WindSpeedGustMPH,Humidity,HourlyPrecipIn,Conditions,Clouds,dailyrainin,SoftwareType,DateUTC
2013-04-05 00:00:00,53.2,51.5,30.06,SSE,158,2.0,6.0,94,0.00,,---,0.00,VWS V14.01,2013-04-05 07:00:00,
2013-04-05 00:15:00,53.0,51.3,30.06,SSE,158,0.0,4.0,94,0.00,,---,0.00,VWS V14.01,2013-04-05 07:15:00,
2013-04-05 00:30:00,52.6,50.9,30.05,SSE,158,0.0,0.0,94,0.00,,---,0.00,VWS V14.01,2013-04-05 07:30:00,
2013-04-05 00:45:00,52.3,50.6,30.06,SSE,158,3.0,8.0,94,0.00,,---,0.00,VWS V14.01,2013-04-05 07:45:00,
2013-04-05 01:00:00,52.3,50.6,30.06,SSE,158,4.0,8.0,94,0.00,,---,0.00,VWS V14.01,2013-04-05 08:00:00,
2013-04-05 01:15:00,51.8,50.1,30.06,SSE,158,3.0,6.0,94,0.00,,---,0.00,VWS V14.01,2013-04-05 08:15:00,
2013-04-05 01:30:00,51.5,49.8,30.07,SSE,158,2.0,6.0,94,0.00,,---,0.00,VWS V14.01,2013-04-05 08:30:00,
2013-04-05 01:45:00,51.7,50.3,30.07,SE,135,3.0,7.0,95,0.00,,---,0.00,VWS V14.01,2013-04-05 08:45:00,
2013-04-05 02:00:00,51.5,50.1,30.06,SE,135,1.0,7.0,95,0.00,,---,0.00,VWS V14.01,2013-04-05 09:00:00,
2013-04-05 02:15:00,51.2,49.5,30.07,SE,135,0.0,0.0,94,0.00,,---,0.00,VWS V14.01,2013-04-05 09:15:00,
2013-04-05 02:30:00,50.7,49.0,30.06,SE,135,3.0,8.0,94,0.00,,---,0.00,VWS V14.01,2013-04-05 09:30:00,
2013-04-05 02:45:00,50.9,49.5,30.06,SSW,202,4.0,7.0,95,0.00,,---,0.00,VWS V14.01,2013-04-05 09:45:00,
2013-04-05 03:00:00,50.7,49.3,30.06,SSW,202,0.0,0.0,95,0.00,,---,0.00,VWS V14.01,2013-04-05 10:00:00,
2013-04-05 03:15:00,50.4,49.0,30.07,SSW,202,0.0,0.0,95,0.00,,---,0.00,VWS V14.01,2013-04-05 10:15:00,
2013-04-05 03:30:00,50.3,48.9,30.07,SSW,202,0.0,0.0,95,0.00,,---,0.00,VWS V14.01,2013-04-05 10:30:00,
2013-04-05 03:45:00,49.9,48.5,30.08,SSW,202,0.0,0.0,95,0.00,,---,0.00,VWS V14.01,2013-04-05 10:45:00,
2013-04-05 04:00:00,49.6,48.2,30.07,SSW,202,0.0,0.0,95,0.00,,---,0.00,VWS V14.01,2013-04-05 11:00:00,
2013-04-05 04:15:00,49.3,47.9,30.07,SSW,202,0.0,0.0,95,0.00,,---,0.00,VWS V14.01,2013-04-05 11:15:00,
2013-04-05 04:30:00,50.0,48.9,30.07,SSW,202,0.0,0.0,96,0.01,,---,0.01,VWS V14.01,2013-04-05 11:30:00,
2013-04-05 04:45:00,50.0,48.6,30.07,SSW,202,0.0,0.0,95,0.01,,---,0.01,VWS V14.01,2013-04-05 11:45:00,
2013-04-05 05:00:00,49.8,48.4,30.08,SSW,202,0.0,0.0,95,0.01,,---,0.01,VWS V14.01,2013-04-05 12:00:00,
2013-04-05 05:15:00,49.7,48.3,30.08,SSW,202,0.0,0.0,95,0.01,,---,0.01,VWS V14.01,2013-04-05 12:15:00,
2013-04-05 05:30:00,49.2,47.8,30.08,SSW,202,0.0,0.0,95,0.01,,---,0.01,VWS V14.01,2013-04-05 12:30:00,
2013-04-05 05:45:00,48.9,47.5,30.07,SSW,202,0.0,5.0,95,0.00,,---,0.01,VWS V14.01,2013-04-05 12:45:00,
2013-04-05 06:00:00,48.2,46.8,30.08,SSW,202,1.0,4.0,95,0.00,,---,0.01,VWS V14.01,2013-04-05 13:00:00,
2013-04-05 06:15:00,48.1,46.7,30.07,SSW,202,0.0,1.0,95,0.00,,---,0.01,VWS V14.01,2013-04-05 13:15:00,
2013-04-05 06:30:00,47.6,46.2,30.08,SSW,202,0.0,3.0,95,0.00,,---,0.01,VWS V14.01,2013-04-05 13:30:00,
2013-04-05 06:45:00,48.0,46.6,30.08,SSW,202,1.0,3.0,95,0.00,,---,0.01,VWS V14.01,2013-04-05 13:45:00,
2013-04-05 07:00:00,47.7,46.3,30.08,SSW,202,2.0,4.0,95,0.00,,---,0.01,VWS V14.01,2013-04-05 14:00:00,
2013-04-05 07:15:00,47.8,46.7,30.08,SSW,202,3.0,6.0,96,0.00,,---,0.01,VWS V14.01,2013-04-05 14:15:00,
2013-04-05 07:30:00,48.3,47.2,30.08,South,180,3.0,5.0,96,0.00,,---,0.01,VWS V14.01,2013-04-05 14:30:00,
2013-04-05 07:45:00,49.4,48.3,30.08,South,180,4.0,6.0,96,0.00,,---,0.01,VWS V14.01,2013-04-05 14:45:00,
2013-04-05 08:00:00,51.4,50.6,30.09,South,180,6.0,9.0,97,0.00,,---,0.01,VWS V14.01,2013-04-05 15:00:00,
2013-04-05 08:15:00,53.0,52.2,30.09,South,180,4.0,8.0,97,0.00,,---,0.01,VWS V14.01,2013-04-05 15:15:00,
2013-04-05 08:30:00,54.6,53.8,30.09,South,180,5.0,10.0,97,0.00,,---,0.01,VWS V14.01,2013-04-05 15:30:00,
2013-04-05 08:45:00,55.7,54.9,30.10,South,180,7.0,10.0,97,0.00,,---,0.01,VWS V14.01,2013-04-05 15:45:00,
2013-04-05 09:00:00,51.4,50.6,30.09,South,180,6.0,9.0,97,0.00,,---,0.01,VWS V14.01,2013-04-05 16:00:00,
2013-04-05 09:14:00,55.7,54.9,30.10,South,180,7.0,10.0,97,0.00,,---,0.01,VWS V14.01,2013-04-05 16:14:00,
2013-04-05 09:15:00,58.1,56.1,30.10,South,176,6.0,7.0,93,0.00,,---,0.01,VWS V14.01,2013-04-05 16:15:00,
2013-04-05 09:19:00,58.4,56.1,30.10,South,175,6.0,9.0,92,0.00,,---,0.01,VWS V14.01,2013-04-05 16:19:00,
2013-04-05 09:24:00,58.9,56.3,30.10,South,175,8.0,9.0,91,0.00,,---,0.01,VWS V14.01,2013-04-05 16:24:00,
2013-04-05 09:29:00,59.3,56.4,30.10,South,174,6.0,9.0,90,0.00,,---,0.01,VWS V14.01,2013-04-05 16:29:00,
2013-04-05 09:30:00,59.4,56.5,30.10,South,171,8.0,9.0,90,0.00,,---,0.01,VWS V14.01,2013-04-05 16:30:00,
2013-04-05 09:34:00,59.8,56.9,30.10,South,169,5.0,9.0,90,0.00,,---,0.01,VWS V14.01,2013-04-05 16:34:00,
2013-04-05 09:39:00,60.2,56.6,30.10,South,169,6.0,9.0,88,0.00,,---,0.01,VWS V14.01,2013-04-05 16:39:00,
2013-04-05 09:44:00,60.5,56.6,30.09,South,169,4.0,9.0,87,0.00,,---,0.01,VWS V14.01,2013-04-05 16:44:00,
2013-04-05 09:45:00,60.5,56.6,30.09,SSE,168,8.0,9.0,87,0.00,,---,0.01,VWS V14.01,2013-04-05 16:45:00,
2013-04-05 09:49:00,60.9,56.7,30.10,SSE,167,6.0,8.0,86,0.00,,---,0.01,VWS V14.01,2013-04-05 16:49:00,
2013-04-05 09:54:00,61.2,56.7,30.10,South,171,2.0,8.0,85,0.00,,---,0.01,VWS V14.01,2013-04-05 16:54:00,
2013-04-05 09:59:00,61.4,56.2,30.09,South,175,2.0,9.0,83,0.00,,---,0.01,VWS V14.01,2013-04-05 16:59:00,
2013-04-05 10:00:00,61.4,56.2,30.09,South,175,4.0,9.0,83,0.00,,---,0.01,VWS V14.01,2013-04-05 17:00:00,
2013-04-05 10:05:00,61.6,56.4,30.09,South,187,8.0,11.0,83,0.00,,---,0.01,VWS V14.01,2013-04-05 17:05:00,
2013-04-05 10:10:00,62.0,55.8,30.09,South,191,0.0,11.0,80,0.00,,---,0.01,VWS V14.01,2013-04-05 17:10:00,
2013-04-05 10:15:00,62.3,55.7,30.09,SSW,192,3.0,11.0,79,0.00,,---,0.01,VWS V14.01,2013-04-05 17:15:00,
2013-04-05 10:20:00,62.4,55.5,30.10,SSW,194,0.0,5.0,78,0.00,,---,0.01,VWS V14.01,2013-04-05 17:20:00,
2013-04-05 10:25:00,62.6,55.3,30.10,SSW,194,2.0,6.0,77,0.00,,---,0.01,VWS V14.01,2013-04-05 17:25:00,
2013-04-05 10:30:00,62.6,55.3,30.10,SSW,194,3.0,6.0,77,0.00,,---,0.01,VWS V14.01,2013-04-05 17:30:00,
2013-04-05 10:35:00,62.7,55.8,30.10,SSW,193,3.0,8.0,78,0.00,,---,0.01,VWS V14.01,2013-04-05 17:35:00,
2013-04-05 10:40:00,63.0,56.4,30.10,SSW,192,4.0,8.0,79,0.00,,---,0.01,VWS V14.01,2013-04-05 17:40:00,
2013-04-05 10:45:00,63.2,55.9,30.10,SSW,192,3.0,8.0,77,0.00,,---,0.01,VWS V14.01,2013-04-05 17:45:00,
2013-04-05 10:50:00,63.2,56.2,30.10,SSW,192,2.0,6.0,78,0.00,,---,0.01,VWS V14.01,2013-04-05 17:50:00,
2013-04-05 10:55:00,63.3,56.0,30.10,SSW,192,0.0,6.0,77,0.00,,---,0.01,VWS V14.01,2013-04-05 17:55:00,
2013-04-05 11:00:00,63.5,55.4,30.10,South,189,0.0,6.0,75,0.00,,---,0.01,VWS V14.01,2013-04-05 18:00:00,
2013-04-05 11:05:00,63.9,56.6,30.10,South,186,3.0,6.0,77,0.00,,---,0.01,VWS V14.01,2013-04-05 18:05:00,
2013-04-05 11:10:00,64.1,55.7,30.11,South,186,3.0,6.0,74,0.00,,---,0.01,VWS V14.01,2013-04-05 18:10:00,
2013-04-05 11:15:00,64.2,55.8,30.11,South,186,0.0,6.0,74,0.00,,---,0.01,VWS V14.01,2013-04-05 18:15:00,
2013-04-05 11:20:00,64.7,55.5,30.11,South,184,0.0,4.0,72,0.00,,---,0.01,VWS V14.01,2013-04-05 18:20:00,
2013-04-05 11:25:00,65.2,57.5,30.11,South,184,0.0,4.0,76,0.00,,---,0.01,VWS V14.01,2013-04-05 18:25:00,
2013-04-05 11:30:00,65.7,56.0,30.11,South,184,0.0,4.0,71,0.00,,---,0.01,VWS V14.01,2013-04-05 18:30:00,
2013-04-05 11:35:00,66.0,57.1,30.10,SSE,164,7.0,10.0,73,0.00,,---,0.01,VWS V14.01,2013-04-05 18:35:00,
2013-04-05 11:40:00,65.8,54.5,30.10,SSE,163,0.0,10.0,67,0.00,,---,0.01,VWS V14.01,2013-04-05 18:40:00,
2013-04-05 11:45:00,65.2,54.4,30.10,SSE,163,0.0,10.0,68,0.00,,---,0.01,VWS V14.01,2013-04-05 18:45:00,
2013-04-05 11:50:00,65.0,54.6,30.10,SSE,163,0.0,5.0,69,0.00,,---,0.01,VWS V14.01,2013-04-05 18:50:00,
2013-04-05 11:55:00,65.2,55.6,30.10,SSE,163,4.0,7.0,71,0.00,,---,0.01,VWS V14.01,2013-04-05 18:55:00,
2013-04-05 12:00:00,65.6,57.1,30.10,SSE,163,0.0,7.0,74,0.00,,---,0.01,VWS V14.01,2013-04-05 19:00:00,
2013-04-05 12:05:00,66.3,57.0,30.10,SSE,163,4.0,7.0,72,0.00,,---,0.01,VWS V14.01,2013-04-05 19:05:00,
2013-04-05 12:10:00,66.6,56.5,30.10,SSE,163,6.0,7.0,70,0.00,,---,0.01,VWS V14.01,2013-04-05 19:10:00,
2013-04-05 12:15:00,66.8,57.5,30.10,SSE,163,6.0,7.0,72,0.00,,---,0.01,VWS V14.01,2013-04-05 19:15:00,
2013-04-05 12:20:00,66.9,56.0,30.10,SSE,163,6.0,9.0,68,0.00,,---,0.01,VWS V14.01,2013-04-05 19:20:00,
2013-04-05 12:25:00,66.7,56.6,30.10,SSE,161,2.0,9.0,70,0.00,,---,0.01,VWS V14.01,2013-04-05 19:25:00,
2013-04-05 12:30:00,67.0,57.7,30.10,SSE,161,4.0,9.0,72,0.00,,---,0.01,VWS V14.01,2013-04-05 19:30:00,
2013-04-05 12:35:00,67.5,57.4,30.10,SSW,194,6.0,11.0,70,0.00,,---,0.01,VWS V14.01,2013-04-05 19:35:00,
2013-04-05 12:40:00,68.0,56.7,30.10,South,189,5.0,11.0,67,0.00,,---,0.01,VWS V14.01,2013-04-05 19:40:00,
2013-04-05 12:45:00,68.3,56.9,30.10,South,185,4.0,11.0,67,0.00,,---,0.01,VWS V14.01,2013-04-05 19:45:00,
2013-04-05 12:50:00,69.0,58.0,30.10,WSW,243,4.0,10.0,68,0.00,,---,0.01,VWS V14.01,2013-04-05 19:50:00,
2013-04-05 12:55:00,69.4,57.1,30.10,WSW,237,5.0,11.0,65,0.00,,---,0.01,VWS V14.01,2013-04-05 19:55:00,
2013-04-05 13:00:00,69.2,57.4,30.10,SW,226,3.0,11.0,66,0.00,,---,0.01,VWS V14.01,2013-04-05 20:00:00,
2013-04-05 13:05:00,69.2,54.7,30.10,SW,227,4.0,6.0,60,0.00,,---,0.01,VWS V14.01,2013-04-05 20:05:00,
2013-04-05 13:10:00,70.0,57.3,30.10,WSW,239,3.0,13.0,64,0.00,,---,0.01,VWS V14.01,2013-04-05 20:10:00,
2013-04-05 13:15:00,70.5,57.8,30.09,WSW,243,3.0,13.0,64,0.00,,---,0.01,VWS V14.01,2013-04-05 20:15:00,
2013-04-05 13:20:00,71.0,57.8,30.09,WSW,240,3.0,8.0,63,0.00,,---,0.01,VWS V14.01,2013-04-05 20:20:00,
2013-04-05 13:25:00,71.0,54.0,30.08,West,261,7.0,15.0,55,0.00,,---,0.01,VWS V14.01,2013-04-05 20:25:00,
2013-04-05 13:30:00,70.4,55.4,30.08,WSW,257,4.0,15.0,59,0.00,,---,0.01,VWS V14.01,2013-04-05 20:30:00,
2013-04-05 13:35:00,69.4,54.0,30.08,WSW,242,2.0,14.0,58,0.00,,---,0.01,VWS V14.01,2013-04-05 20:35:00,
2013-04-05 13:40:00,68.7,54.7,30.08,WNW,298,8.0,14.0,61,0.00,,---,0.01,VWS V14.01,2013-04-05 20:40:00,
2013-04-05 13:45:00,68.6,53.2,30.08,WSW,245,6.0,14.0,58,0.00,,---,0.01,VWS V14.01,2013-04-05 20:45:00,
2013-04-05 13:50:00,69.0,55.0,30.08,WSW,254,3.0,8.0,61,0.00,,---,0.01,VWS V14.01,2013-04-05 20:50:00,
2013-04-05 13:55:00,69.5,53.1,30.08,SW,235,5.0,9.0,56,0.00,,---,0.01,VWS V14.01,2013-04-05 20:55:00,
2013-04-05 14:00:00,69.8,54.4,30.08,West,271,7.0,8.0,58,0.00,,---,0.01,VWS V14.01,2013-04-05 21:00:00,
2013-04-05 14:05:00,69.5,52.2,30.07,West,269,7.0,13.0,54,0.00,,---,0.01,VWS V14.01,2013-04-05 21:05:00,
2013-04-05 14:10:00,69.3,54.4,30.08,West,263,7.0,13.0,59,0.00,,---,0.01,VWS V14.01,2013-04-05 21:10:00,
2013-04-05 14:15:00,69.3,55.7,30.07,West,265,8.0,9.0,62,0.00,,---,0.01,VWS V14.01,2013-04-05 21:15:00,
2013-04-05 14:20:00,69.5,55.0,30.07,WSW,245,4.0,13.0,60,0.00,,---,0.01,VWS V14.01,2013-04-05 21:20:00,
2013-04-05 14:25:00,69.7,54.3,30.07,SW,236,4.0,13.0,58,0.00,,---,0.01,VWS V14.01,2013-04-05 21:25:00,
2013-04-05 14:30:00,69.7,54.8,30.07,SW,218,2.0,3.0,59,0.00,,---,0.01,VWS V14.01,2013-04-05 21:30:00,
2013-04-05 14:35:00,69.5,53.1,30.07,SSW,204,5.0,9.0,56,0.00,,---,0.01,VWS V14.01,2013-04-05 21:35:00,
2013-04-05 14:40:00,69.3,53.9,30.07,WSW,243,0.0,9.0,58,0.00,,---,0.01,VWS V14.01,2013-04-05 21:40:00,
2013-04-05 14:45:00,69.2,53.8,30.07,SW,221,2.0,4.0,58,0.00,,---,0.01,VWS V14.01,2013-04-05 21:45:00,
2013-04-05 14:50:00,69.1,52.8,30.07,WSW,239,5.0,7.0,56,0.00,,---,0.01,VWS V14.01,2013-04-05 21:50:00,
2013-04-05 14:55:00,69.2,55.2,30.07,SW,221,6.0,7.0,61,0.00,,---,0.01,VWS V14.01,2013-04-05 21:55:00,
2013-04-05 15:00:00,69.1,54.7,30.07,SSW,209,7.0,8.0,60,0.00,,---,0.01,VWS V14.01,2013-04-05 22:00:00,
2013-04-05 15:05:00,68.9,55.4,30.07,SSW,205,7.0,11.0,62,0.00,,---,0.01,VWS V14.01,2013-04-05 22:05:00,
2013-04-05 15:10:00,69.0,54.5,30.07,SSW,211,3.0,11.0,60,0.00,,---,0.01,VWS V14.01,2013-04-05 22:10:00,
2013-04-05 15:15:00,69.4,54.0,30.06,SSW,200,5.0,6.0,58,0.00,,---,0.01,VWS V14.01,2013-04-05 22:15:00,
2013-04-05 15:20:00,70.0,53.6,30.06,SW,236,5.0,7.0,56,0.00,,---,0.01,VWS V14.01,2013-04-05 22:20:00,
2013-04-05 15:25:00,70.4,54.5,30.06,SSW,203,3.0,10.0,57,0.00,,---,0.01,VWS V14.01,2013-04-05 22:25:00,
2013-04-05 15:30:00,70.4,53.0,30.06,SSW,200,4.0,6.0,54,0.00,,---,0.01,VWS V14.01,2013-04-05 22:30:00,
2013-04-05 15:35:00,70.4,53.0,30.06,SW,218,3.0,6.0,54,0.00,,---,0.01,VWS V14.01,2013-04-05 22:35:00,
2013-04-05 15:40:00,70.6,52.1,30.06,SW,221,6.0,7.0,52,0.00,,---,0.01,VWS V14.01,2013-04-05 22:40:00,
2013-04-05 15:45:00,70.7,52.8,30.06,South,175,7.0,8.0,53,0.00,,---,0.01,VWS V14.01,2013-04-05 22:45:00,
2013-04-05 15:50:00,70.3,52.9,30.05,SSW,194,2.0,9.0,54,0.00,,---,0.01,VWS V14.01,2013-04-05 22:50:00,
2013-04-05 15:55:00,70.0,52.1,30.05,WSW,245,3.0,9.0,53,0.00,,---,0.01,VWS V14.01,2013-04-05 22:55:00,
2013-04-05 16:00:00,69.9,53.5,30.06,WSW,254,2.0,2.0,56,0.00,,---,0.01,VWS V14.01,2013-04-05 23:00:00,
2013-04-05 16:05:00,70.0,52.6,30.05,WSW,242,5.0,6.0,54,0.00,,---,0.01,VWS V14.01,2013-04-05 23:05:00,
2013-04-05 16:10:00,69.9,54.0,30.05,SSW,205,3.0,11.0,57,0.00,,---,0.01,VWS V14.01,2013-04-05 23:10:00,
2013-04-05 16:15:00,69.6,52.2,30.06,WSW,245,7.0,7.0,54,0.00,,---,0.01,VWS V14.01,2013-04-05 23:15:00,
2013-04-05 16:20:00,69.4,54.5,30.05,WSW,242,6.0,8.0,59,0.00,,---,0.01,VWS V14.01,2013-04-05 23:20:00,
2013-04-05 16:25:00,69.3,52.5,30.05,West,264,0.0,8.0,55,0.00,,---,0.01,VWS V14.01,2013-04-05 23:25:00,
2013-04-05 16:30:00,68.9,53.5,30.05,SSW,195,7.0,8.0,58,0.00,,---,0.01,VWS V14.01,2013-04-05 23:30:00,
2013-04-05 16:35:00,68.0,52.7,30.05,SSW,198,4.0,9.0,58,0.00,,---,0.01,VWS V14.01,2013-04-05 23:35:00,
2013-04-05 16:40:00,67.6,52.8,30.05,SSW,202,0.0,9.0,59,0.00,,---,0.01,VWS V14.01,2013-04-05 23:40:00,
2013-04-05 16:45:00,67.5,55.3,30.04,SSW,204,7.0,7.0,65,0.00,,---,0.01,VWS V14.01,2013-04-05 23:45:00,
2013-04-05 16:50:00,67.6,55.4,30.04,SW,219,5.0,7.0,65,0.00,,---,0.01,VWS V14.01,2013-04-05 23:50:00,
2013-04-05 16:55:00,67.9,54.4,30.05,SSW,207,4.0,11.0,62,0.00,,---,0.01,VWS V14.01,2013-04-05 23:55:00,
2013-04-05 17:00:00,67.9,53.5,30.04,SW,226,3.0,5.0,60,0.00,,---,0.01,VWS V14.01,2013-04-06 00:00:00,
2013-04-05 17:05:00,67.8,53.9,30.05,SW,219,2.0,8.0,61,0.00,,---,0.01,VWS V14.01,2013-04-06 00:05:00,
2013-04-05 17:10:00,67.6,52.3,30.05,WSW,242,3.0,10.0,58,0.00,,---,0.01,VWS V14.01,2013-04-06 00:10:00,
2013-04-05 17:15:00,67.4,54.4,30.06,WSW,239,0.0,3.0,63,0.00,,---,0.01,VWS V14.01,2013-04-06 00:15:00,
2013-04-05 17:20:00,67.2,53.8,30.05,SW,228,4.0,6.0,62,0.00,,---,0.01,VWS V14.01,2013-04-06 00:20:00,
2013-04-05 17:25:00,66.9,53.5,30.05,SSW,208,3.0,11.0,62,0.00,,---,0.01,VWS V14.01,2013-04-06 00:25:00,
2013-04-05 17:30:00,66.6,54.1,30.05,SSW,205,8.0,9.0,64,0.00,,---,0.01,VWS V14.01,2013-04-06 00:30:00,
2013-04-05 17:35:00,66.4,55.1,30.05,SW,221,2.0,10.0,67,0.00,,---,0.01,VWS V14.01,2013-04-06 00:35:00,
2013-04-05 17:40:00,66.4,54.3,30.05,SW,230,2.0,10.0,65,0.00,,---,0.01,VWS V14.01,2013-04-06 00:40:00,
2013-04-05 17:45:00,66.5,54.8,30.04,SSW,203,4.0,4.0,66,0.00,,---,0.01,VWS V14.01,2013-04-06 00:45:00,
2013-04-05 17:50:00,66.5,54.8,30.04,SW,216,5.0,7.0,66,0.00,,---,0.01,VWS V14.01,2013-04-06 00:50:00,
2013-04-05 17:55:00,66.5,54.4,30.04,WSW,245,8.0,10.0,65,0.00,,---,0.01,VWS V14.01,2013-04-06 00:55:00,
2013-04-05 18:00:00,66.5,54.0,30.04,WSW,243,5.0,7.0,64,0.00,,---,0.01,VWS V14.01,2013-04-06 01:00:00,
2013-04-05 18:05:00,66.4,53.4,30.04,WSW,243,5.0,10.0,63,0.00,,---,0.01,VWS V14.01,2013-04-06 01:05:00,
2013-04-05 18:10:00,66.1,53.6,30.04,WSW,245,3.0,10.0,64,0.00,,---,0.01,VWS V14.01,2013-04-06 01:10:00,
2013-04-05 18:15:00,65.9,54.2,30.04,WSW,244,1.0,6.0,66,0.00,,---,0.01,VWS V14.01,2013-04-06 01:15:00,
2013-04-05 18:20:00,65.6,54.4,30.04,SW,236,1.0,6.0,67,0.00,,---,0.01,VWS V14.01,2013-04-06 01:20:00,
2013-04-05 18:25:00,65.4,54.2,30.04,WSW,238,0.0,6.0,67,0.00,,---,0.01,VWS V14.01,2013-04-06 01:25:00,
2013-04-05 18:30:00,65.1,54.3,30.04,WSW,238,2.0,4.0,68,0.00,,---,0.01,VWS V14.01,2013-04-06 01:30:00,
2013-04-05 18:35:00,64.8,54.0,30.05,WSW,242,3.0,5.0,68,0.00,,---,0.01,VWS V14.01,2013-04-06 01:35:00,
2013-04-05 18:40:00,64.5,54.1,30.05,WSW,244,0.0,5.0,69,0.00,,---,0.01,VWS V14.01,2013-04-06 01:40:00,
2013-04-05 18:45:00,64.3,54.7,30.04,WSW,242,4.0,4.0,71,0.00,,---,0.01,VWS V14.01,2013-04-06 01:45:00,
2013-04-05 18:50:00,63.8,54.2,30.04,SSW,211,0.0,6.0,71,0.00,,---,0.01,VWS V14.01,2013-04-06 01:50:00,
2013-04-05 18:55:00,63.4,54.6,30.04,SSW,211,4.0,6.0,73,0.00,,---,0.01,VWS V14.01,2013-04-06 01:55:00,
2013-04-05 19:00:00,62.8,54.0,30.04,SSW,208,4.0,6.0,73,0.00,,---,0.01,VWS V14.01,2013-04-06 02:00:00,
2013-04-05 19:05:00,62.3,53.5,30.03,SSW,207,5.0,6.0,73,0.00,,---,0.01,VWS V14.01,2013-04-06 02:05:00,
2013-04-05 19:10:00,62.1,54.1,30.03,SSW,206,3.0,6.0,75,0.00,,---,0.01,VWS V14.01,2013-04-06 02:10:00,
2013-04-05 19:15:00,61.8,54.2,30.03,SSW,205,3.0,4.0,76,0.00,,---,0.01,VWS V14.01,2013-04-06 02:15:00,
2013-04-05 19:20:00,61.4,53.0,30.03,SSW,205,7.0,7.0,74,0.00,,---,0.01,VWS V14.01,2013-04-06 02:20:00,
2013-04-05 19:25:00,61.0,53.0,30.03,SSW,207,6.0,8.0,75,0.00,,---,0.01,VWS V14.01,2013-04-06 02:25:00,
2013-04-05 19:30:00,60.7,53.1,30.03,SSW,207,5.0,6.0,76,0.00,,---,0.01,VWS V14.01,2013-04-06 02:30:00,
2013-04-05 19:35:00,60.4,53.2,30.03,SSW,206,5.0,7.0,77,0.00,,---,0.01,VWS V14.01,2013-04-06 02:35:00,
2013-04-05 19:40:00,60.1,52.9,30.04,SSW,206,3.0,7.0,77,0.00,,---,0.01,VWS V14.01,2013-04-06 02:40:00,
2013-04-05 19:45:00,59.9,53.4,30.04,SSW,205,3.0,4.0,79,0.00,,---,0.01,VWS V14.01,2013-04-06 02:45:00,
2013-04-05 19:51:00,59.6,53.4,30.04,SSW,205,4.0,4.0,80,0.00,,---,0.01,VWS V14.01,2013-04-06 02:51:00,
2013-04-05 19:56:00,59.3,53.5,30.04,SSW,205,3.0,5.0,81,0.00,,---,0.01,VWS V14.01,2013-04-06 02:56:00,
2013-04-05 20:00:00,59.1,53.3,30.05,SSW,205,4.0,5.0,81,0.00,,---,0.01,VWS V14.01,2013-04-06 03:00:00,
2013-04-05 20:01:00,59.1,53.3,30.05,SSW,205,3.0,4.0,81,0.00,,---,0.01,VWS V14.01,2013-04-06 03:01:00,
2013-04-05 20:06:00,58.8,53.3,30.05,SSW,205,2.0,6.0,82,0.00,,---,0.01,VWS V14.01,2013-04-06 03:06:00,
2013-04-05 20:11:00,58.6,53.5,30.05,SSW,205,4.0,6.0,83,0.00,,---,0.01,VWS V14.01,2013-04-06 03:11:00,
2013-04-05 20:15:00,58.5,53.4,30.05,SSW,204,3.0,6.0,83,0.00,,---,0.01,VWS V14.01,2013-04-06 03:15:00,
2013-04-05 20:16:00,58.4,53.3,30.05,SSW,203,4.0,6.0,83,0.00,,---,0.01,VWS V14.01,2013-04-06 03:16:00,
2013-04-05 20:21:00,58.3,53.5,30.05,SSW,203,4.0,6.0,84,0.00,,---,0.01,VWS V14.01,2013-04-06 03:21:00,
2013-04-05 20:26:00,58.1,53.3,30.05,SSW,203,5.0,6.0,84,0.00,,---,0.01,VWS V14.01,2013-04-06 03:26:00,
2013-04-05 20:30:00,58.1,53.3,30.05,SSW,204,2.0,7.0,84,0.00,,---,0.01,VWS V14.01,2013-04-06 03:30:00,
2013-04-05 20:31:00,58.1,53.3,30.06,SSW,205,3.0,5.0,84,0.00,,---,0.01,VWS V14.01,2013-04-06 03:31:00,
2013-04-05 20:36:00,57.9,53.1,30.06,SSW,205,2.0,5.0,84,0.00,,---,0.01,VWS V14.01,2013-04-06 03:36:00,
2013-04-05 20:41:00,57.7,52.9,30.06,SSW,205,3.0,5.0,84,0.00,,---,0.01,VWS V14.01,2013-04-06 03:41:00,
2013-04-05 20:45:00,57.6,52.8,30.06,SSW,205,2.0,5.0,84,0.00,,---,0.01,VWS V14.01,2013-04-06 03:45:00,
2013-04-05 20:46:00,57.5,53.0,30.06,SSW,205,4.0,4.0,85,0.00,,---,0.01,VWS V14.01,2013-04-06 03:46:00,
2013-04-05 20:52:00,57.1,52.6,30.06,SSW,205,5.0,7.0,85,0.00,,---,0.01,VWS V14.01,2013-04-06 03:52:00,
2013-04-05 20:57:00,56.9,52.4,30.06,SSW,202,6.0,8.0,85,0.00,,---,0.01,VWS V14.01,2013-04-06 03:57:00,
2013-04-05 21:00:00,56.8,52.0,30.06,SSW,201,5.0,8.0,84,0.00,,---,0.01,VWS V14.01,2013-04-06 04:00:00,
2013-04-05 21:05:00,56.8,52.0,30.06,SSW,198,5.0,8.0,84,0.00,,---,0.01,VWS V14.01,2013-04-06 04:05:00,
2013-04-05 21:10:00,56.7,51.9,30.07,SSW,199,7.0,8.0,84,0.00,,---,0.01,VWS V14.01,2013-04-06 04:10:00,
2013-04-05 21:15:00,56.7,51.9,30.07,SSW,195,7.0,8.0,84,0.00,,---,0.01,VWS V14.01,2013-04-06 04:15:00,
2013-04-05 21:20:00,56.6,52.2,30.07,SSW,194,5.0,7.0,85,0.00,,---,0.01,VWS V14.01,2013-04-06 04:20:00,
2013-04-05 21:25:00,56.4,52.0,30.07,SSW,194,5.0,7.0,85,0.00,,---,0.01,VWS V14.01,2013-04-06 04:25:00,
2013-04-05 21:30:00,56.1,51.7,30.07,SSW,194,4.0,5.0,85,0.00,,---,0.01,VWS V14.01,2013-04-06 04:30:00,
2013-04-05 21:35:00,55.9,51.5,30.07,SSW,194,6.0,7.0,85,0.00,,---,0.01,VWS V14.01,2013-04-06 04:35:00,
2013-04-05 21:40:00,55.7,51.3,30.07,SSW,194,3.0,8.0,85,0.00,,---,0.01,VWS V14.01,2013-04-06 04:40:00,
2013-04-05 21:45:00,55.6,51.2,30.07,SSW,194,4.0,8.0,85,0.00,,---,0.01,VWS V14.01,2013-04-06 04:45:00,
2013-04-05 21:50:00,55.4,51.3,30.07,SSW,194,3.0,7.0,86,0.00,,---,0.01,VWS V14.01,2013-04-06 04:50:00,
2013-04-05 21:55:00,55.3,51.2,30.07,SSW,194,3.0,7.0,86,0.00,,---,0.01,VWS V14.01,2013-04-06 04:55:00,
2013-04-05 22:00:00,55.0,50.9,30.08,SSW,194,3.0,4.0,86,0.00,,---,0.01,VWS V14.01,2013-04-06 05:00:00,
2013-04-05 22:05:00,54.9,51.1,30.08,SSW,194,2.0,6.0,87,0.00,,---,0.01,VWS V14.01,2013-04-06 05:05:00,
2013-04-05 22:10:00,54.7,50.9,30.09,SSW,194,3.0,6.0,87,0.00,,---,0.01,VWS V14.01,2013-04-06 05:10:00,
2013-04-05 22:15:00,54.5,50.7,30.09,SSW,194,2.0,4.0,87,0.00,,---,0.01,VWS V14.01,2013-04-06 05:15:00,
2013-04-05 22:20:00,54.3,50.5,30.09,SSW,194,6.0,7.0,87,0.00,,---,0.01,VWS V14.01,2013-04-06 05:20:00,
2013-04-05 22:25:00,54.1,50.3,30.09,SSW,196,4.0,7.0,87,0.00,,---,0.01,VWS V14.01,2013-04-06 05:25:00,
2013-04-05 22:30:00,54.0,50.2,30.09,SSW,201,4.0,4.0,87,0.00,,---,0.01,VWS V14.01,2013-04-06 05:30:00,
2013-04-05 22:35:00,53.9,50.1,30.09,SSW,192,4.0,7.0,87,0.00,,---,0.01,VWS V14.01,2013-04-06 05:35:00,
2013-04-05 22:40:00,53.9,50.1,30.09,SSW,195,5.0,7.0,87,0.00,,---,0.01,VWS V14.01,2013-04-06 05:40:00,
2013-04-05 22:45:00,53.8,50.3,30.09,SSW,198,4.0,4.0,88,0.00,,---,0.01,VWS V14.01,2013-04-06 05:45:00,
2013-04-05 22:50:00,53.8,50.3,30.08,SSW,198,0.0,4.0,88,0.00,,---,0.01,VWS V14.01,2013-04-06 05:50:00,
2013-04-05 22:55:00,53.7,50.2,30.08,SSW,198,0.0,4.0,88,0.00,,---,0.01,VWS V14.01,2013-04-06 05:55:00,
2013-04-05 23:00:00,53.6,50.1,30.09,SSW,198,0.0,0.0,88,0.00,,---,0.01,VWS V14.01,2013-04-06 06:00:00,
2013-04-05 23:05:00,53.5,50.0,30.08,SSW,198,0.0,0.0,88,0.00,,---,0.01,VWS V14.01,2013-04-06 06:05:00,
2013-04-05 23:10:00,53.4,49.9,30.08,SSW,198,0.0,0.0,88,0.00,,---,0.01,VWS V14.01,2013-04-06 06:10:00,
2013-04-05 23:15:00,53.3,49.8,30.08,SSW,198,0.0,0.0,88,0.00,,---,0.01,VWS V14.01,2013-04-06 06:15:00,
2013-04-05 23:20:00,53.2,49.7,30.09,SSW,198,0.0,0.0,88,0.00,,---,0.01,VWS V14.01,2013-04-06 06:20:00,
2013-04-05 23:25:00,53.1,49.7,30.09,SSW,198,0.0,0.0,88,0.00,,---,0.01,VWS V14.01,2013-04-06 06:25:00,
2013-04-05 23:30:00,53.0,49.5,30.08,SSW,198,0.0,0.0,88,0.00,,---,0.01,VWS V14.01,2013-04-06 06:30:00,
2013-04-05 23:35:00,52.9,49.5,30.09,SSW,198,0.0,0.0,88,0.00,,---,0.01,VWS V14.01,2013-04-06 06:35:00,
2013-04-05 23:40:00,52.9,49.8,30.09,SSW,198,0.0,0.0,89,0.00,,---,0.01,VWS V14.01,2013-04-06 06:40:00,
2013-04-05 23:45:00,52.8,49.7,30.09,SSW,198,0.0,0.0,89,0.00,,---,0.01,VWS V14.01,2013-04-06 06:45:00,
2013-04-05 23:50:00,52.8,49.7,30.08,SSW,198,0.0,0.0,89,0.00,,---,0.01,VWS V14.01,2013-04-06 06:50:00,
2013-04-05 23:55:00,52.7,49.5,30.08,SSW,198,0.0,0.0,89,0.00,,---,0.01,VWS V14.01,2013-04-06 06:55:00,